createdAt,value
2022-11-03T00:01:40.361Z,99802.28
2022-11-03T00:04:08.955Z,99801.97
2022-11-03T00:06:36.495Z,99804.03
2022-11-03T00:09:09.739Z,99792.19
2022-11-03T00:11:38.472Z,99787.25
2022-11-03T00:14:06.491Z,99790.66
2022-11-03T00:16:33.570Z,99786.25
2022-11-03T00:19:00.228Z,99792.25
2022-11-03T00:21:27.054Z,99777.53
2022-11-03T00:23:54.232Z,99784.38
2022-11-03T00:26:23.104Z,99785.25
2022-11-03T00:28:53.980Z,99787.22
2022-11-03T00:31:23.740Z,99772.97
2022-11-03T00:33:51.273Z,99771.47
2022-11-03T00:36:21.527Z,99768.53
2022-11-03T00:38:48.563Z,99759.13
2022-11-03T00:41:16.701Z,99758.47
2022-11-03T00:43:44.007Z,99757.88
2022-11-03T00:46:11.153Z,99763.22
2022-11-03T00:48:38.467Z,99759.06
2022-11-03T00:51:10.588Z,99754.69
2022-11-03T00:53:38.462Z,99754.56
2022-11-03T00:56:06.683Z,99758.09
2022-11-03T00:58:34.076Z,99744.63
2022-11-03T01:01:08.794Z,99747.50
2022-11-03T01:03:37.727Z,99743.59
2022-11-03T01:06:28.239Z,99734.84
2022-11-03T01:08:54.991Z,99733.34
2022-11-03T01:11:42.715Z,99732.66
2022-11-03T01:14:11.800Z,99735.97
2022-11-03T01:16:38.519Z,99733.34
2022-11-03T01:19:05.269Z,99743.19
2022-11-03T01:21:31.972Z,99732.28
2022-11-03T01:24:01.959Z,99733.72
2022-11-03T01:26:29.060Z,99743.09
2022-11-03T01:28:55.754Z,99739.69
2022-11-03T01:31:24.370Z,99744.88
2022-11-03T01:33:53.408Z,99747.78
2022-11-03T01:36:20.651Z,99736.84
2022-11-03T01:38:48.279Z,99746.38
2022-11-03T01:41:27.312Z,99744.25
2022-11-03T01:44:09.336Z,99746.53
2022-11-03T01:46:49.943Z,99748.16
2022-11-03T01:49:47.350Z,99744.38
2022-11-03T01:52:20.277Z,99741.31
2022-11-03T01:54:51.883Z,99740.81
2022-11-03T01:57:24.901Z,99736.25
2022-11-03T01:59:52.253Z,99729.72
2022-11-03T02:02:25.001Z,99722.94
2022-11-03T02:04:52.110Z,99718.16
2022-11-03T02:07:32.101Z,99718.78
2022-11-03T02:09:58.765Z,99710.03
2022-11-03T02:12:26.113Z,99706.28
2022-11-03T02:14:58.298Z,99700.09
2022-11-03T02:17:27.693Z,99702.38
2022-11-03T02:20:05.490Z,99700.25
2022-11-03T02:22:50.957Z,99695.50
2022-11-03T02:25:47.412Z,99695.88
2022-11-03T02:28:20.161Z,99687.75
2022-11-03T02:31:05.497Z,99681.75
2022-11-03T02:33:50.302Z,99680.78
2022-11-03T02:36:49.049Z,99680.94
2022-11-03T02:39:21.650Z,99679.25
2022-11-03T02:41:50.234Z,99680.00
2022-11-03T02:44:18.954Z,99676.47
2022-11-03T02:46:49.225Z,99675.47
2022-11-03T02:49:16.182Z,99670.72
2022-11-03T02:51:42.941Z,99656.41
2022-11-03T02:54:27.197Z,99651.03
2022-11-03T02:57:00.326Z,99655.59
2022-11-03T02:59:32.232Z,99650.84
2022-11-03T03:02:09.094Z,99642.22
2022-11-03T03:04:58.879Z,99642.81
2022-11-03T03:07:31.313Z,99634.75
2022-11-03T03:10:06.632Z,99629.16
2022-11-03T03:12:37.264Z,99624.50
2022-11-03T03:15:05.972Z,99620.16
2022-11-03T03:17:54.004Z,99618.03
2022-11-03T03:20:24.550Z,99613.69
2022-11-03T03:23:11.411Z,99618.78
2022-11-03T03:25:43.693Z,99614.63
2022-11-03T03:28:17.774Z,99615.09
2022-11-03T03:30:46.847Z,99613.09
2022-11-03T03:33:16.325Z,99611.19
2022-11-03T03:35:46.327Z,99600.03
2022-11-03T03:38:21.943Z,99601.06
2022-11-03T03:40:52.405Z,99608.94
2022-11-03T03:43:21.978Z,99607.97
2022-11-03T03:45:52.136Z,99606.88
2022-11-03T03:48:19.150Z,99609.03
2022-11-03T03:50:49.128Z,99599.84
2022-11-03T03:53:18.047Z,99591.94
2022-11-03T03:55:50.455Z,99581.84
2022-11-03T03:58:17.391Z,99576.88
2022-11-03T04:00:44.785Z,99569.50
2022-11-03T04:03:21.255Z,99567.88
2022-11-03T04:05:48.183Z,99569.09
2022-11-03T04:08:17.146Z,99561.13
2022-11-03T04:11:03.602Z,99552.69
2022-11-03T04:14:00.153Z,99548.25
2022-11-03T04:16:45.225Z,99550.25
2022-11-03T04:19:30.024Z,99546.31
2022-11-03T04:22:15.505Z,99531.91
2022-11-03T04:24:43.704Z,99543.69
2022-11-03T04:27:30.977Z,99535.34
2022-11-03T04:30:01.942Z,99530.31
2022-11-03T04:32:29.302Z,99521.91
2022-11-03T04:34:56.081Z,99520.28
2022-11-03T04:37:22.818Z,99519.91
2022-11-03T04:39:49.475Z,99513.94
2022-11-03T05:21:37.655Z,99481.09
2022-11-03T05:24:33.765Z,99485.72
2022-11-03T06:05:50.179Z,99470.22
2022-11-03T06:12:01.480Z,99476.78
2022-11-03T06:24:32.676Z,99470.91
2022-11-03T06:37:03.384Z,99471.47
2022-11-03T07:00:06.683Z,99437.00
2022-11-03T07:02:57.882Z,99430.47
2022-11-03T07:08:53.695Z,99419.50
2022-11-03T07:11:54.365Z,99429.06
2022-11-03T07:14:31.975Z,99410.22
2022-11-03T08:43:33.714Z,99341.06
2022-11-03T11:09:28.677Z,99103.84
2022-11-03T11:16:03.307Z,99092.19
2022-11-03T11:18:30.127Z,99083.00
2022-11-03T11:21:02.074Z,99082.22
2022-11-03T11:37:03.976Z,99051.81
2022-11-03T11:39:31.206Z,99057.88
2022-11-03T15:21:55.216Z,98673.72
2022-11-03T15:27:09.171Z,98651.03
2022-11-03T15:29:42.970Z,98654.88
2022-11-03T15:32:09.873Z,98649.31
2022-11-03T15:40:41.245Z,98637.72
2022-11-03T15:43:08.206Z,98643.19
2022-11-03T15:45:36.058Z,98649.41
2022-11-03T15:48:02.692Z,98643.38
2022-11-03T15:50:29.633Z,98641.00
2022-11-03T15:52:56.255Z,98633.06
2022-11-03T15:55:23.603Z,98625.81
2022-11-03T15:57:52.187Z,98616.25
2022-11-03T16:00:20.784Z,98622.16
2022-11-03T16:02:50.217Z,98617.47
2022-11-03T16:05:22.313Z,98614.47
2022-11-03T16:07:53.586Z,98607.75
2022-11-03T16:10:20.213Z,98600.03
2022-11-03T16:12:48.232Z,98591.91
2022-11-03T16:15:16.539Z,98594.78
2022-11-03T16:17:45.642Z,98603.75
2022-11-03T16:20:13.518Z,98593.16
2022-11-03T16:22:40.516Z,98598.19
2022-11-03T16:25:12.731Z,98594.50
2022-11-03T16:27:44.289Z,98589.41
2022-11-03T16:30:11.974Z,98590.28
2022-11-03T16:32:39.875Z,98593.81
2022-11-03T16:35:07.464Z,98578.44
2022-11-03T16:37:38.132Z,98579.66
2022-11-03T16:40:06.111Z,98577.59
2022-11-03T16:42:38.399Z,98579.59
2022-11-03T16:45:18.534Z,98569.63
2022-11-03T16:47:49.972Z,98569.13
2022-11-03T16:50:17.699Z,98568.03
2022-11-03T16:52:48.309Z,98564.00
2022-11-03T16:55:16.303Z,98561.00
2022-11-03T16:57:43.230Z,98553.06
2022-11-03T17:00:20.630Z,98554.47
2022-11-03T17:02:47.744Z,98559.25
2022-11-03T17:05:16.707Z,98548.69
2022-11-03T17:07:45.394Z,98542.47
2022-11-03T17:10:15.421Z,98537.78
2022-11-03T17:12:42.087Z,98530.09
2022-11-03T17:15:09.080Z,98529.06
2022-11-03T17:17:35.723Z,98523.19
2022-11-03T17:20:02.285Z,98514.28
2022-11-03T17:22:28.861Z,98506.22
2022-11-03T17:24:55.797Z,98498.50
2022-11-03T17:27:44.869Z,98499.69
2022-11-03T17:30:23.376Z,98486.88
2022-11-03T17:32:53.222Z,98482.22
2022-11-03T17:35:23.861Z,98480.34
2022-11-03T17:37:52.090Z,98468.56
2022-11-03T17:40:25.138Z,98474.13
2022-11-03T17:42:52.571Z,98469.94
2022-11-03T17:45:20.773Z,98466.06
2022-11-03T17:47:49.645Z,98467.09
2022-11-03T17:50:18.954Z,98457.19
2022-11-03T17:52:47.385Z,98454.63
2022-11-03T17:55:31.503Z,98448.78
2022-11-03T17:58:01.616Z,98447.31
2022-11-03T18:00:29.464Z,98434.19
2022-11-03T18:02:56.543Z,98443.88
2022-11-03T18:05:30.156Z,98424.41
2022-11-03T18:08:02.653Z,98423.91
2022-11-03T18:10:32.540Z,98420.56
2022-11-03T18:13:16.861Z,98417.38
2022-11-03T18:15:50.641Z,98417.91
2022-11-03T18:18:36.611Z,98417.03
2022-11-03T18:21:04.280Z,98405.13
2022-11-03T18:23:32.976Z,98402.03
2022-11-03T18:26:01.778Z,98393.13
2022-11-03T18:28:28.589Z,98388.75
2022-11-03T18:30:57.105Z,98378.94
2022-11-03T18:33:27.633Z,98373.69
2022-11-03T18:35:54.567Z,98368.56
2022-11-03T18:38:22.973Z,98360.28
2022-11-03T18:40:49.990Z,98365.44
2022-11-03T18:43:22.402Z,98366.38
2022-11-03T18:45:49.249Z,98352.00
2022-11-03T18:48:19.662Z,98343.09
2022-11-03T18:50:54.992Z,98341.44
2022-11-03T18:53:24.498Z,98336.53
2022-11-03T18:55:52.115Z,98329.00
2022-11-03T18:58:24.642Z,98329.63
2022-11-03T19:00:52.653Z,98330.34
2022-11-03T19:03:22.752Z,98325.97
2022-11-03T19:05:52.720Z,98317.97
2022-11-03T19:08:24.064Z,98309.53
2022-11-03T19:10:52.331Z,98313.00
2022-11-03T19:13:28.592Z,98310.41
2022-11-03T19:16:00.250Z,98311.44
2022-11-03T19:18:28.765Z,98309.56
2022-11-03T19:20:55.392Z,98299.38
2022-11-03T19:23:21.998Z,98295.84
2022-11-03T19:25:57.654Z,98294.38
2022-11-03T19:28:27.586Z,98285.91
2022-11-03T19:30:57.888Z,98283.31
2022-11-03T19:33:27.866Z,98281.91
2022-11-03T19:35:54.807Z,98283.78
2022-11-03T19:38:21.647Z,98276.44
2022-11-03T19:41:07.192Z,98267.31
2022-11-03T19:43:35.160Z,98266.69
2022-11-03T19:53:11.834Z,98253.69
